sensor_id;sensor_type;location;lat;lon;timestamp;pressure;altitude;pressure_sealevel;temperature;humidity
28306;BME280;7516;43.570;1.448;2022-11-15T00:00:57;99330.53;;;12.71;100.00
28306;BME280;7516;43.570;1.448;2022-11-15T00:03:26;99328.47;;;12.67;100.00
28306;BME280;7516;43.570;1.448;2022-11-15T00:05:54;99319.38;;;12.63;100.00
28306;BME280;7516;43.570;1.448;2022-11-15T00:08:21;99318.94;;;12.59;100.00
28306;BME280;7516;43.570;1.448;2022-11-15T00:10:55;99313.28;;;12.56;100.00
28306;BME280;7516;43.570;1.448;2022-11-15T00:13:24;99310.84;;;12.54;100.00
28306;BME280;7516;43.570;1.448;2022-11-15T00:15:55;99307.41;;;12.54;100.00
28306;BME280;7516;43.570;1.448;2022-11-15T00:18:23;99304.56;;;12.55;100.00
28306;BME280;7516;43.570;1.448;2022-11-15T00:20:51;99305.97;;;12.58;100.00
28306;BME280;7516;43.570;1.448;2022-11-15T00:23:19;99297.72;;;12.61;100.00
28306;BME280;7516;43.570;1.448;2022-11-15T00:25:46;99295.72;;;12.63;100.00
28306;BME280;7516;43.570;1.448;2022-11-15T00:28:14;99283.19;;;12.65;100.00
28306;BME280;7516;43.570;1.448;2022-11-15T00:30:41;99286.41;;;12.67;100.00
28306;BME280;7516;43.570;1.448;2022-11-15T00:33:10;99278.34;;;12.68;100.00
28306;BME280;7516;43.570;1.448;2022-11-15T00:35:38;99271.06;;;12.70;100.00
28306;BME280;7516;43.570;1.448;2022-11-15T00:38:05;99270.88;;;12.72;100.00
28306;BME280;7516;43.570;1.448;2022-11-15T00:40:33;99262.19;;;12.71;100.00
28306;BME280;7516;43.570;1.448;2022-11-15T00:43:00;99260.56;;;12.70;100.00
28306;BME280;7516;43.570;1.448;2022-11-15T00:45:27;99250.22;;;12.69;100.00
28306;BME280;7516;43.570;1.448;2022-11-15T00:47:55;99246.78;;;12.68;100.00
28306;BME280;7516;43.570;1.448;2022-11-15T00:50:24;99244.16;;;12.68;100.00
28306;BME280;7516;43.570;1.448;2022-11-15T00:52:51;99239.09;;;12.67;100.00
28306;BME280;7516;43.570;1.448;2022-11-15T00:55:19;99226.97;;;12.66;100.00
28306;BME280;7516;43.570;1.448;2022-11-15T00:57:47;99223.72;;;12.64;100.00
28306;BME280;7516;43.570;1.448;2022-11-15T01:00:15;99221.09;;;12.64;100.00
28306;BME280;7516;43.570;1.448;2022-11-15T01:02:42;99224.53;;;12.64;100.00
28306;BME280;7516;43.570;1.448;2022-11-15T01:05:10;99219.66;;;12.61;100.00
28306;BME280;7516;43.570;1.448;2022-11-15T01:07:39;99212.78;;;12.60;100.00
28306;BME280;7516;43.570;1.448;2022-11-15T01:10:07;99214.78;;;12.58;100.00
28306;BME280;7516;43.570;1.448;2022-11-15T01:12:35;99209.53;;;12.58;100.00
28306;BME280;7516;43.570;1.448;2022-11-15T01:15:03;99203.69;;;12.56;100.00
28306;BME280;7516;43.570;1.448;2022-11-15T01:17:31;99209.53;;;12.58;100.00
28306;BME280;7516;43.570;1.448;2022-11-15T01:19:59;99210.16;;;12.60;100.00
28306;BME280;7516;43.570;1.448;2022-11-15T01:22:26;99201.47;;;12.60;100.00
28306;BME280;7516;43.570;1.448;2022-11-15T01:24:55;99198.63;;;12.61;100.00
28306;BME280;7516;43.570;1.448;2022-11-15T01:27:23;99194.19;;;12.62;100.00
28306;BME280;7516;43.570;1.448;2022-11-15T01:29:50;99194.19;;;12.62;100.00
28306;BME280;7516;43.570;1.448;2022-11-15T01:32:18;99193.19;;;12.63;100.00
28306;BME280;7516;43.570;1.448;2022-11-15T01:34:45;99188.94;;;12.62;100.00
28306;BME280;7516;43.570;1.448;2022-11-15T01:37:13;99186.13;;;12.63;100.00
28306;BME280;7516;43.570;1.448;2022-11-15T01:39:40;99181.66;;;12.64;100.00
28306;BME280;7516;43.570;1.448;2022-11-15T01:42:12;99172.59;;;12.66;100.00
28306;BME280;7516;43.570;1.448;2022-11-15T01:44:46;99169.97;;;12.66;100.00
28306;BME280;7516;43.570;1.448;2022-11-15T01:47:17;99165.47;;;12.67;100.00
28306;BME280;7516;43.570;1.448;2022-11-15T01:49:52;99160.03;;;12.68;100.00
28306;BME280;7516;43.570;1.448;2022-11-15T01:52:24;99159.84;;;12.70;100.00
28306;BME280;7516;43.570;1.448;2022-11-15T01:54:56;99155.59;;;12.69;100.00
28306;BME280;7516;43.570;1.448;2022-11-15T01:57:26;99146.88;;;12.68;100.00
28306;BME280;7516;43.570;1.448;2022-11-15T01:59:53;99150.13;;;12.70;100.00
28306;BME280;7516;43.570;1.448;2022-11-15T02:02:21;99140.44;;;12.71;100.00
28306;BME280;7516;43.570;1.448;2022-11-15T02:04:49;99134.34;;;12.70;100.00
28306;BME280;7516;43.570;1.448;2022-11-15T02:07:18;99126.47;;;12.70;100.00
28306;BME280;7516;43.570;1.448;2022-11-15T02:09:46;99110.09;;;12.68;100.00
28306;BME280;7516;43.570;1.448;2022-11-15T02:12:16;99099.38;;;12.70;100.00
28306;BME280;7516;43.570;1.448;2022-11-15T02:14:48;99094.94;;;12.70;100.00
28306;BME280;7516;43.570;1.448;2022-11-15T02:17:40;99085.41;;;12.69;100.00
28306;BME280;7516;43.570;1.448;2022-11-15T02:20:35;99080.16;;;12.69;100.00
28306;BME280;7516;43.570;1.448;2022-11-15T02:23:25;99079.16;;;12.70;100.00
28306;BME280;7516;43.570;1.448;2022-11-15T02:26:16;99070.44;;;12.70;100.00
28306;BME280;7516;43.570;1.448;2022-11-15T02:28:58;99056.69;;;12.68;100.00
28306;BME280;7516;43.570;1.448;2022-11-15T02:31:33;99049.81;;;12.67;100.00
28306;BME280;7516;43.570;1.448;2022-11-15T02:34:08;99054.28;;;12.66;100.00
28306;BME280;7516;43.570;1.448;2022-11-15T02:36:47;99042.97;;;12.66;100.00
28306;BME280;7516;43.570;1.448;2022-11-15T02:39:21;99036.09;;;12.65;100.00
28306;BME280;7516;43.570;1.448;2022-11-15T02:41:54;99043.16;;;12.64;100.00
28306;BME280;7516;43.570;1.448;2022-11-15T02:44:26;99033.66;;;12.63;100.00
28306;BME280;7516;43.570;1.448;2022-11-15T02:47:01;99034.47;;;12.64;100.00
28306;BME280;7516;43.570;1.448;2022-11-15T02:49:43;99033.66;;;12.63;100.00
28306;BME280;7516;43.570;1.448;2022-11-15T02:52:15;99030.22;;;12.63;100.00
28306;BME280;7516;43.570;1.448;2022-11-15T02:54:52;99032.84;;;12.63;100.00
28306;BME280;7516;43.570;1.448;2022-11-15T02:57:27;99030.41;;;12.61;100.00
28306;BME280;7516;43.570;1.448;2022-11-15T03:00:06;99022.53;;;12.61;100.00
28306;BME280;7516;43.570;1.448;2022-11-15T03:02:56;99013.81;;;12.61;100.00
28306;BME280;7516;43.570;1.448;2022-11-15T03:05:33;99011.41;;;12.59;100.00
28306;BME280;7516;43.570;1.448;2022-11-15T03:08:08;99009.78;;;12.58;100.00
28306;BME280;7516;43.570;1.448;2022-11-15T03:10:46;99000.50;;;12.56;100.00
28306;BME280;7516;43.570;1.448;2022-11-15T03:13:27;99001.69;;;12.53;100.00
28306;BME280;7516;43.570;1.448;2022-11-15T03:16:02;98992.41;;;12.51;100.00
28306;BME280;7516;43.570;1.448;2022-11-15T03:18:33;98993.63;;;12.48;100.00
28306;BME280;7516;43.570;1.448;2022-11-15T03:21:06;98993.22;;;12.44;100.00
28306;BME280;7516;43.570;1.448;2022-11-15T03:23:37;98989.97;;;12.42;100.00
28306;BME280;7516;43.570;1.448;2022-11-15T03:26:07;98980.69;;;12.40;100.00
28306;BME280;7516;43.570;1.448;2022-11-15T03:28:37;98977.44;;;12.38;100.00
28306;BME280;7516;43.570;1.448;2022-11-15T03:31:07;98974.63;;;12.39;100.00
28306;BME280;7516;43.570;1.448;2022-11-15T03:33:55;98981.28;;;12.42;100.00
28306;BME280;7516;43.570;1.448;2022-11-15T03:36:25;98963.09;;;12.47;100.00
28306;BME280;7516;43.570;1.448;2022-11-15T03:38:55;98953.59;;;12.53;100.00
28306;BME280;7516;43.570;1.448;2022-11-15T03:41:29;98955.19;;;12.60;100.00
28306;BME280;7516;43.570;1.448;2022-11-15T03:44:07;98949.16;;;12.66;100.00
28306;BME280;7516;43.570;1.448;2022-11-15T03:46:42;98944.47;;;12.68;100.00
28306;BME280;7516;43.570;1.448;2022-11-15T03:49:17;98943.06;;;12.72;100.00
28306;BME280;7516;43.570;1.448;2022-11-15T03:51:47;98943.44;;;12.76;100.00
28306;BME280;7516;43.570;1.448;2022-11-15T03:54:14;98933.34;;;12.79;100.00
28306;BME280;7516;43.570;1.448;2022-11-15T03:56:42;98930.88;;;12.85;100.00
28306;BME280;7516;43.570;1.448;2022-11-15T03:59:09;98940.59;;;12.91;100.00
28306;BME280;7516;43.570;1.448;2022-11-15T04:01:37;98931.69;;;12.92;100.00
28306;BME280;7516;43.570;1.448;2022-11-15T04:04:05;98922.00;;;12.92;100.00
28306;BME280;7516;43.570;1.448;2022-11-15T04:06:33;98926.84;;;12.89;100.00
28306;BME280;7516;43.570;1.448;2022-11-15T04:09:01;98923.59;;;12.87;100.00
28306;BME280;7516;43.570;1.448;2022-11-15T04:11:28;98928.84;;;12.87;100.00
28306;BME280;7516;43.570;1.448;2022-11-15T04:13:56;98931.50;;;12.87;100.00
28306;BME280;7516;43.570;1.448;2022-11-15T04:16:23;98926.22;;;12.87;100.00
28306;BME280;7516;43.570;1.448;2022-11-15T04:18:51;98921.97;;;12.86;100.00
28306;BME280;7516;43.570;1.448;2022-11-15T04:21:33;98930.69;;;12.86;100.00
28306;BME280;7516;43.570;1.448;2022-11-15T04:24:19;98917.31;;;12.88;100.00
28306;BME280;7516;43.570;1.448;2022-11-15T04:26:46;98912.69;;;12.90;100.00
28306;BME280;7516;43.570;1.448;2022-11-15T04:29:13;98909.66;;;12.93;100.00
28306;BME280;7516;43.570;1.448;2022-11-15T04:31:58;98904.97;;;12.95;100.00
28306;BME280;7516;43.570;1.448;2022-11-15T04:34:26;98903.34;;;13.00;100.00
28306;BME280;7516;43.570;1.448;2022-11-15T04:36:55;98900.09;;;13.05;100.00
28306;BME280;7516;43.570;1.448;2022-11-15T04:39:42;98892.38;;;13.10;100.00
28306;BME280;7516;43.570;1.448;2022-11-15T04:42:10;98895.22;;;13.15;100.00
28306;BME280;7516;43.570;1.448;2022-11-15T04:44:38;98892.19;;;13.18;100.00
28306;BME280;7516;43.570;1.448;2022-11-15T04:47:05;98897.00;;;13.21;100.00
28306;BME280;7516;43.570;1.448;2022-11-15T04:49:33;98884.47;;;13.23;100.00
28306;BME280;7516;43.570;1.448;2022-11-15T04:52:02;98881.41;;;13.26;100.00
28306;BME280;7516;43.570;1.448;2022-11-15T04:54:29;98879.16;;;13.30;100.00
28306;BME280;7516;43.570;1.448;2022-11-15T04:56:57;98885.03;;;13.32;100.00
28306;BME280;7516;43.570;1.448;2022-11-15T04:59:24;98877.53;;;13.35;100.00
28306;BME280;7516;43.570;1.448;2022-11-15T05:01:52;98870.81;;;13.39;100.00
28306;BME280;7516;43.570;1.448;2022-11-15T05:04:19;98881.53;;;13.44;100.00
28306;BME280;7516;43.570;1.448;2022-11-15T05:06:49;98879.25;;;13.48;100.00
28306;BME280;7516;43.570;1.448;2022-11-15T05:09:19;98872.97;;;13.49;100.00
28306;BME280;7516;43.570;1.448;2022-11-15T05:11:47;98873.38;;;13.52;100.00
28306;BME280;7516;43.570;1.448;2022-11-15T05:14:15;98867.66;;;13.55;100.00
28306;BME280;7516;43.570;1.448;2022-11-15T05:16:42;98863.00;;;13.57;100.00
28306;BME280;7516;43.570;1.448;2022-11-15T05:19:10;98858.34;;;13.60;100.00
28306;BME280;7516;43.570;1.448;2022-11-15T05:21:38;98854.50;;;13.62;100.00
28306;BME280;7516;43.570;1.448;2022-11-15T05:24:06;98846.34;;;13.64;100.00
28306;BME280;7516;43.570;1.448;2022-11-15T05:26:35;98849.78;;;13.64;100.00
28306;BME280;7516;43.570;1.448;2022-11-15T05:29:03;98843.50;;;13.65;100.00
28306;BME280;7516;43.570;1.448;2022-11-15T05:31:30;98837.22;;;13.66;100.00
28306;BME280;7516;43.570;1.448;2022-11-15T05:33:59;98839.66;;;13.68;100.00
28306;BME280;7516;43.570;1.448;2022-11-15T05:36:31;98836.00;;;13.69;100.00
28306;BME280;7516;43.570;1.448;2022-11-15T05:39:01;98834.38;;;13.68;100.00
28306;BME280;7516;43.570;1.448;2022-11-15T05:41:35;98837.63;;;13.70;100.00
28306;BME280;7516;43.570;1.448;2022-11-15T05:44:07;98837.41;;;13.71;100.00
28306;BME280;7516;43.570;1.448;2022-11-15T05:46:36;98837.19;;;13.73;100.00
28306;BME280;7516;43.570;1.448;2022-11-15T05:49:06;98845.69;;;13.75;100.00
28306;BME280;7516;43.570;1.448;2022-11-15T05:51:35;98835.94;;;13.75;100.00
28306;BME280;7516;43.570;1.448;2022-11-15T05:54:03;98836.75;;;13.76;100.00
28306;BME280;7516;43.570;1.448;2022-11-15T05:56:30;98847.69;;;13.79;100.00
28306;BME280;7516;43.570;1.448;2022-11-15T05:58:59;98843.22;;;13.80;100.00
28306;BME280;7516;43.570;1.448;2022-11-15T06:01:28;98842.19;;;13.81;100.00
28306;BME280;7516;43.570;1.448;2022-11-15T06:03:55;98842.78;;;13.83;100.00
28306;BME280;7516;43.570;1.448;2022-11-15T06:06:23;98845.41;;;13.83;100.00
28306;BME280;7516;43.570;1.448;2022-11-15T06:08:50;98844.59;;;13.82;100.00
28306;BME280;7516;43.570;1.448;2022-11-15T06:11:18;98836.50;;;13.84;100.00
28306;BME280;7516;43.570;1.448;2022-11-15T06:13:45;98842.56;;;13.84;100.00
28306;BME280;7516;43.570;1.448;2022-11-15T06:16:14;98848.66;;;13.85;100.00
28306;BME280;7516;43.570;1.448;2022-11-15T06:18:42;98845.00;;;13.86;100.00
28306;BME280;7516;43.570;1.448;2022-11-15T06:21:09;98849.25;;;13.87;100.00
28306;BME280;7516;43.570;1.448;2022-11-15T06:23:37;98839.72;;;13.86;100.00
28306;BME280;7516;43.570;1.448;2022-11-15T06:26:04;98845.81;;;13.86;100.00
28306;BME280;7516;43.570;1.448;2022-11-15T06:28:33;98843.16;;;13.86;100.00
28306;BME280;7516;43.570;1.448;2022-11-15T06:31:03;98838.09;;;13.85;100.00
28306;BME280;7516;43.570;1.448;2022-11-15T06:33:32;98832.84;;;13.85;100.00
28306;BME280;7516;43.570;1.448;2022-11-15T06:36:01;98841.34;;;13.87;100.00
28306;BME280;7516;43.570;1.448;2022-11-15T06:38:28;98850.84;;;13.88;100.00
28306;BME280;7516;43.570;1.448;2022-11-15T06:41:01;98843.75;;;13.88;100.00
28306;BME280;7516;43.570;1.448;2022-11-15T06:43:29;98845.38;;;13.89;100.00
28306;BME280;7516;43.570;1.448;2022-11-15T06:45:58;98841.69;;;13.90;100.00
28306;BME280;7516;43.570;1.448;2022-11-15T06:48:26;98840.69;;;13.91;100.00
28306;BME280;7516;43.570;1.448;2022-11-15T06:50:56;98838.03;;;13.91;100.00
28306;BME280;7516;43.570;1.448;2022-11-15T06:53:24;98832.56;;;13.93;100.00
28306;BME280;7516;43.570;1.448;2022-11-15T06:55:52;98841.06;;;13.95;100.00
28306;BME280;7516;43.570;1.448;2022-11-15T06:58:21;98847.94;;;13.96;100.00
28306;BME280;7516;43.570;1.448;2022-11-15T07:00:48;98842.47;;;13.98;100.00
28306;BME280;7516;43.570;1.448;2022-11-15T07:03:16;98847.50;;;13.99;100.00
28306;BME280;7516;43.570;1.448;2022-11-15T07:05:51;98843.66;;;14.02;100.00
28306;BME280;7516;43.570;1.448;2022-11-15T07:08:21;98840.78;;;14.03;100.00
28306;BME280;7516;43.570;1.448;2022-11-15T07:10:49;98834.28;;;14.06;100.00
28306;BME280;7516;43.570;1.448;2022-11-15T07:13:16;98840.38;;;14.06;100.00
28306;BME280;7516;43.570;1.448;2022-11-15T07:15:44;98844.38;;;14.09;100.00
28306;BME280;7516;43.570;1.448;2022-11-15T07:18:11;98825.72;;;14.10;100.00
28306;BME280;7516;43.570;1.448;2022-11-15T07:20:39;98836.88;;;14.12;100.00
28306;BME280;7516;43.570;1.448;2022-11-15T07:23:06;98837.47;;;14.14;100.00
28306;BME280;7516;43.570;1.448;2022-11-15T07:25:35;98825.09;;;14.15;100.00
28306;BME280;7516;43.570;1.448;2022-11-15T07:28:03;98824.84;;;14.16;100.00
28306;BME280;7516;43.570;1.448;2022-11-15T07:30:31;98832.56;;;14.18;100.00
28306;BME280;7516;43.570;1.448;2022-11-15T07:32:59;98826.25;;;14.19;100.00
28306;BME280;7516;43.570;1.448;2022-11-15T07:35:27;98819.97;;;14.20;100.00
28306;BME280;7516;43.570;1.448;2022-11-15T07:37:56;98814.50;;;14.21;100.00
28306;BME280;7516;43.570;1.448;2022-11-15T07:40:24;98817.13;;;14.21;100.00
28306;BME280;7516;43.570;1.448;2022-11-15T07:42:59;98815.50;;;14.20;100.00
28306;BME280;7516;43.570;1.448;2022-11-15T07:45:27;98817.53;;;14.18;100.00
28306;BME280;7516;43.570;1.448;2022-11-15T07:47:54;98828.09;;;14.18;100.00
28306;BME280;7516;43.570;1.448;2022-11-15T07:50:23;98822.00;;;14.18;100.00
28306;BME280;7516;43.570;1.448;2022-11-15T07:52:54;98832.56;;;14.18;100.00
28306;BME280;7516;43.570;1.448;2022-11-15T07:55:22;98829.09;;;14.17;100.00
28306;BME280;7516;43.570;1.448;2022-11-15T07:57:50;98833.34;;;14.18;100.00
28306;BME280;7516;43.570;1.448;2022-11-15T08:00:19;98822.00;;;14.18;100.00
28306;BME280;7516;43.570;1.448;2022-11-15T08:02:47;98828.09;;;14.18;100.00
28306;BME280;7516;43.570;1.448;2022-11-15T08:05:14;98824.44;;;14.19;100.00
28306;BME280;7516;43.570;1.448;2022-11-15T08:07:42;98828.69;;;14.20;100.00
28306;BME280;7516;43.570;1.448;2022-11-15T08:10:09;98827.66;;;14.21;100.00
28306;BME280;7516;43.570;1.448;2022-11-15T08:12:38;98824.00;;;14.22;100.00
28306;BME280;7516;43.570;1.448;2022-11-15T08:15:06;98820.34;;;14.23;100.00
28306;BME280;7516;43.570;1.448;2022-11-15T08:17:35;98824.34;;;14.26;100.00
28306;BME280;7516;43.570;1.448;2022-11-15T08:20:03;98817.06;;;14.28;100.00
28306;BME280;7516;43.570;1.448;2022-11-15T08:22:30;98804.47;;;14.30;100.00
28306;BME280;7516;43.570;1.448;2022-11-15T08:24:58;98801.63;;;14.31;100.00
28306;BME280;7516;43.570;1.448;2022-11-15T08:27:25;98808.06;;;14.36;100.00
28306;BME280;7516;43.570;1.448;2022-11-15T08:29:53;98804.38;;;14.37;100.00
28306;BME280;7516;43.570;1.448;2022-11-15T08:32:21;98807.03;;;14.37;100.00
28306;BME280;7516;43.570;1.448;2022-11-15T08:34:50;98811.28;;;14.38;100.00
28306;BME280;7516;43.570;1.448;2022-11-15T08:37:18;98812.09;;;14.38;100.00
28306;BME280;7516;43.570;1.448;2022-11-15T08:39:45;98822.44;;;14.40;100.00
28306;BME280;7516;43.570;1.448;2022-11-15T08:42:13;98815.13;;;14.42;100.00
28306;BME280;7516;43.570;1.448;2022-11-15T08:44:41;98816.28;;;14.46;100.00
28306;BME280;7516;43.570;1.448;2022-11-15T08:47:09;98805.91;;;14.51;100.00
28306;BME280;7516;43.570;1.448;2022-11-15T08:49:38;98815.13;;;14.60;100.00
28306;BME280;7516;43.570;1.448;2022-11-15T08:52:06;98819.53;;;14.66;100.00
28306;BME280;7516;43.570;1.448;2022-11-15T08:54:34;98823.91;;;14.72;100.00
28306;BME280;7516;43.570;1.448;2022-11-15T08:57:01;98825.09;;;14.76;100.00
28306;BME280;7516;43.570;1.448;2022-11-15T08:59:29;98831.75;;;14.79;100.00
28306;BME280;7516;43.570;1.448;2022-11-15T09:01:56;98829.69;;;14.81;100.00
28306;BME280;7516;43.570;1.448;2022-11-15T09:04:24;98821.56;;;14.82;100.00
28306;BME280;7516;43.570;1.448;2022-11-15T09:06:51;98818.72;;;14.84;100.00
28306;BME280;7516;43.570;1.448;2022-11-15T09:09:20;98816.88;;;14.84;100.00
28306;BME280;7516;43.570;1.448;2022-11-15T09:11:48;98814.84;;;14.86;100.00
28306;BME280;7516;43.570;1.448;2022-11-15T09:14:17;98825.94;;;14.88;100.00
28306;BME280;7516;43.570;1.448;2022-11-15T09:16:44;98817.81;;;14.90;100.00
28306;BME280;7516;43.570;1.448;2022-11-15T09:19:12;98826.53;;;14.90;100.00
28306;BME280;7516;43.570;1.448;2022-11-15T09:21:41;98826.09;;;14.93;100.00
28306;BME280;7516;43.570;1.448;2022-11-15T09:24:09;98817.16;;;14.94;100.00
28306;BME280;7516;43.570;1.448;2022-11-15T09:26:38;98815.88;;;14.97;100.00
28306;BME280;7516;43.570;1.448;2022-11-15T09:29:06;98808.56;;;14.99;100.00
28306;BME280;7516;43.570;1.448;2022-11-15T09:31:33;98807.31;;;15.01;100.00
28306;BME280;7516;43.570;1.448;2022-11-15T09:34:01;98816.97;;;15.07;100.00
28306;BME280;7516;43.570;1.448;2022-11-15T09:36:28;98809.44;;;15.11;100.00
28306;BME280;7516;43.570;1.448;2022-11-15T09:38:57;98804.28;;;15.16;100.00
28306;BME280;7516;43.570;1.448;2022-11-15T09:41:50;98804.19;;;15.23;100.00
28306;BME280;7516;43.570;1.448;2022-11-15T09:44:34;98797.44;;;15.27;100.00
28306;BME280;7516;43.570;1.448;2022-11-15T09:47:21;98780.09;;;15.31;100.00
28306;BME280;7516;43.570;1.448;2022-11-15T09:49:57;98785.75;;;15.34;100.00
28306;BME280;7516;43.570;1.448;2022-11-15T09:52:25;98791.63;;;15.36;100.00
28306;BME280;7516;43.570;1.448;2022-11-15T09:54:53;98796.41;;;15.39;100.00
28306;BME280;7516;43.570;1.448;2022-11-15T09:57:32;98794.94;;;15.43;100.00
28306;BME280;7516;43.570;1.448;2022-11-15T10:00:13;98800.59;;;15.47;100.00
28306;BME280;7516;43.570;1.448;2022-11-15T10:03:01;98797.25;;;15.52;100.00
28306;BME280;7516;43.570;1.448;2022-11-15T10:05:34;98795.81;;;15.56;100.00
28306;BME280;7516;43.570;1.448;2022-11-15T10:08:13;98809.38;;;15.59;100.00
28306;BME280;7516;43.570;1.448;2022-11-15T10:10:46;98801.59;;;15.64;100.00
28306;BME280;7516;43.570;1.448;2022-11-15T10:13:20;98790.53;;;15.67;100.00
28306;BME280;7516;43.570;1.448;2022-11-15T10:15:50;98790.91;;;15.71;100.00
28306;BME280;7516;43.570;1.448;2022-11-15T10:18:22;98780.66;;;15.74;100.00
28306;BME280;7516;43.570;1.448;2022-11-15T10:20:58;98781.03;;;15.78;100.00
28306;BME280;7516;43.570;1.448;2022-11-15T10:23:27;98778.03;;;15.86;100.00
28306;BME280;7516;43.570;1.448;2022-11-15T10:25:57;98764.84;;;15.98;100.00
28306;BME280;7516;43.570;1.448;2022-11-15T10:28:28;98774.03;;;16.07;100.00
28306;BME280;7516;43.570;1.448;2022-11-15T10:30:58;98754.59;;;16.13;100.00
28306;BME280;7516;43.570;1.448;2022-11-15T10:33:30;98758.50;;;16.22;100.00
28306;BME280;7516;43.570;1.448;2022-11-15T10:36:20;98765.97;;;16.25;100.00
28306;BME280;7516;43.570;1.448;2022-11-15T10:38:54;98764.47;;;16.29;100.00
28306;BME280;7516;43.570;1.448;2022-11-15T10:41:28;98761.13;;;16.34;100.00
28306;BME280;7516;43.570;1.448;2022-11-15T10:44:26;98755.13;;;16.38;100.00
28306;BME280;7516;43.570;1.448;2022-11-15T10:47:22;98764.09;;;16.37;100.00
28306;BME280;7516;43.570;1.448;2022-11-15T10:49:56;98768.34;;;16.38;100.00
28306;BME280;7516;43.570;1.448;2022-11-15T10:52:24;98759.16;;;16.41;100.00
28306;BME280;7516;43.570;1.448;2022-11-15T10:54:53;98749.38;;;16.41;100.00
28306;BME280;7516;43.570;1.448;2022-11-15T10:57:23;98757.91;;;16.43;100.00
28306;BME280;7516;43.570;1.448;2022-11-15T10:59:55;98745.22;;;16.45;100.00
28306;BME280;7516;43.570;1.448;2022-11-15T11:02:32;98746.03;;;16.46;100.00
28306;BME280;7516;43.570;1.448;2022-11-15T11:05:01;98740.28;;;16.49;100.00
28306;BME280;7516;43.570;1.448;2022-11-15T11:07:30;98739.56;;;16.53;100.00
28306;BME280;7516;43.570;1.448;2022-11-15T11:10:04;98739.09;;;16.56;100.00
28306;BME280;7516;43.570;1.448;2022-11-15T11:12:33;98725.06;;;16.56;100.00
28306;BME280;7516;43.570;1.448;2022-11-15T11:15:10;98725.06;;;16.56;100.00
28306;BME280;7516;43.570;1.448;2022-11-15T11:17:51;98719.78;;;16.56;100.00
28306;BME280;7516;43.570;1.448;2022-11-15T11:20:24;98729.56;;;16.55;100.00
28306;BME280;7516;43.570;1.448;2022-11-15T11:23:14;98724.84;;;16.58;100.00
28306;BME280;7516;43.570;1.448;2022-11-15T11:25:46;98723.56;;;16.60;100.00
28306;BME280;7516;43.570;1.448;2022-11-15T11:28:29;98721.53;;;16.62;100.00
28306;BME280;7516;43.570;1.448;2022-11-15T11:31:10;98719.22;;;16.66;100.00
28306;BME280;7516;43.570;1.448;2022-11-15T11:33:48;98715.63;;;16.72;100.00
28306;BME280;7516;43.570;1.448;2022-11-15T11:36:24;98714.47;;;16.79;100.00
28306;BME280;7516;43.570;1.448;2022-11-15T11:38:59;98712.22;;;16.88;100.00
28306;BME280;7516;43.570;1.448;2022-11-15T11:41:46;98701.78;;;16.98;100.00
28306;BME280;7516;43.570;1.448;2022-11-15T11:44:42;98699.56;;;17.07;100.00
28306;BME280;7516;43.570;1.448;2022-11-15T11:47:23;98702.06;;;17.13;100.00
28306;BME280;7516;43.570;1.448;2022-11-15T11:49:52;98693.63;;;17.16;100.00
28306;BME280;7516;43.570;1.448;2022-11-15T11:52:24;98689.94;;;17.17;100.00
28306;BME280;7516;43.570;1.448;2022-11-15T11:55:00;98687.31;;;17.17;100.00
28306;BME280;7516;43.570;1.448;2022-11-15T11:57:41;98690.75;;;17.18;100.00
28306;BME280;7516;43.570;1.448;2022-11-15T12:00:17;98683.03;;;17.16;100.00
28306;BME280;7516;43.570;1.448;2022-11-15T12:02:51;98685.16;;;17.14;100.00
28306;BME280;7516;43.570;1.448;2022-11-15T12:05:27;98693.09;;;17.14;100.00
28306;BME280;7516;43.570;1.448;2022-11-15T12:08:04;98687.53;;;17.16;100.00
28306;BME280;7516;43.570;1.448;2022-11-15T12:10:37;98685.47;;;17.18;100.00
28306;BME280;7516;43.570;1.448;2022-11-15T12:13:11;98680.97;;;17.18;100.00
28306;BME280;7516;43.570;1.448;2022-11-15T12:15:43;98687.88;;;17.19;100.00
28306;BME280;7516;43.570;1.448;2022-11-15T12:18:15;98684.19;;;17.20;100.00
28306;BME280;7516;43.570;1.448;2022-11-15T12:20:52;98686.91;;;17.25;100.00
28306;BME280;7516;43.570;1.448;2022-11-15T12:23:25;98688.03;;;17.29;100.00
28306;BME280;7516;43.570;1.448;2022-11-15T12:25:57;98685.16;;;17.31;100.00
28306;BME280;7516;43.570;1.448;2022-11-15T12:28:34;98690.75;;;17.35;100.00
28306;BME280;7516;43.570;1.448;2022-11-15T12:31:10;98684.41;;;17.36;100.00
28306;BME280;7516;43.570;1.448;2022-11-15T12:33:43;98682.56;;;17.36;100.00
28306;BME280;7516;43.570;1.448;2022-11-15T12:36:12;98677.84;;;17.38;100.00
28306;BME280;7516;43.570;1.448;2022-11-15T12:38:58;98684.50;;;17.41;100.00
28306;BME280;7516;43.570;1.448;2022-11-15T12:41:27;98685.06;;;17.43;100.00
28306;BME280;7516;43.570;1.448;2022-11-15T12:43:56;98673.41;;;17.44;100.00
28306;BME280;7516;43.570;1.448;2022-11-15T12:47:03;98678.25;;;17.47;100.00
28306;BME280;7516;43.570;1.448;2022-11-15T12:49:46;98670.88;;;17.49;100.00
28306;BME280;7516;43.570;1.448;2022-11-15T12:52:14;98670.13;;;17.53;100.00
28306;BME280;7516;43.570;1.448;2022-11-15T12:54:59;98666.19;;;17.56;100.00
28306;BME280;7516;43.570;1.448;2022-11-15T12:57:42;98673.91;;;17.57;100.00
28306;BME280;7516;43.570;1.448;2022-11-15T13:00:43;98673.66;;;17.59;100.00
28306;BME280;7516;43.570;1.448;2022-11-15T13:03:35;98666.84;;;17.63;100.00
28306;BME280;7516;43.570;1.448;2022-11-15T13:06:09;98664.81;;;17.70;100.00
28306;BME280;7516;43.570;1.448;2022-11-15T13:08:43;98664.09;;;17.75;100.00
28306;BME280;7516;43.570;1.448;2022-11-15T13:11:45;98654.84;;;17.77;100.00
28306;BME280;7516;43.570;1.448;2022-11-15T13:14:48;98657.25;;;17.79;100.00
28306;BME280;7516;43.570;1.448;2022-11-15T13:17:39;98657.00;;;17.80;100.00
28306;BME280;7516;43.570;1.448;2022-11-15T13:20:25;98666.00;;;17.79;100.00
28306;BME280;7516;43.570;1.448;2022-11-15T13:23:02;98661.75;;;17.78;100.00
28306;BME280;7516;43.570;1.448;2022-11-15T13:25:56;98668.09;;;17.77;100.00